Nearby METAR Reports

 

KLOM - Philly Wings F, Pennsylvania, USA
Distance from station: SW 6mi, 10km
Updated: Fri, 31-Oct-2014 7:55pm EDT
Overcast
Overcast
 Wind from calm
Wind: Calm
Temperature: 50°F , 10°C
Dew Point: 36°F , 2°C
Humidity: 58%
Barometer: 29.88 inHg , 1011.9 hPa
Clouds: Overcast
Visibility: 10 miles , 16 km
Cloud details: Partly cloudy 3200 ft
Mostly cloudy 5000 ft
Overcast 7000 ft
2014/10/31 23:55 KLOM 312355Z AUTO 00000KT 10SM SCT032 BKN050 OVC070 10/02 A2988 RMK AO1
KDYL - Doylestown, Pennsylvania, USA
Distance from station: NNE 10mi, 17km
Updated: Fri, 31-Oct-2014 7:54pm EDT
Overcast
Overcast
 Wind from NNE
Wind: NNE 5 mph , 7 km/h
Temperature: 46°F , 8°C
Wind Chill: 44°F , 7°C
Dew Point: 36°F , 2°C
Humidity: 66%
Barometer: 29.88 inHg , 1011.9 hPa
Clouds: Overcast
Visibility: 10 miles , 16 km
Cloud details: Mostly cloudy 5000 ft
Overcast 7000 ft
2014/10/31 23:54 KDYL 312354Z AUTO 02004KT 10SM BKN050 OVC070 08/02 A2988 RMK AO2 SLP123 T00830022 10100 20083 58002 $
KPNE - Philadelphia/Ne, Pennsylvania, USA
Distance from station: SE 11mi, 18km
Updated: Fri, 31-Oct-2014 7:54pm EDT
Overcast
Overcast
 Wind from N
Wind: N 8 mph , 13 km/h
Temperature: 52°F , 11°C
Dew Point: 34°F , 1°C
Humidity: 50%
Barometer: 29.89 inHg , 1012.2 hPa
Clouds: Overcast
Visibility: 10 miles , 16 km
Cloud details: Mostly cloudy 4300 ft
Mostly cloudy 5000 ft
Overcast 7000 ft
2014/10/31 23:54 KPNE 312354Z AUTO 01007KT 10SM BKN043 BKN050 OVC070 11/01 A2989 RMK AO2 SLP122 T01060011 10117 20106 58005 TSNO
 
KPTW - Pottstown, Pennsylvania, USA
Distance from station: W 20mi, 32km
Updated: Fri, 31-Oct-2014 7:54pm EDT
Overcast
Overcast
 Wind from calm
Wind: Calm
Temperature: 48°F , 9°C
Dew Point: 36°F , 2°C
Humidity: 62%
Barometer: 29.90 inHg , 1012.5 hPa
Clouds: Overcast
Visibility: 10 miles , 16 km
Cloud details: Overcast 3500 ft
2014/10/31 23:54 KPTW 312354Z AUTO 00000KT 10SM OVC035 09/02 A2990 RMK AO2 SLP123 T00890022 10111 20089 58001
KTTN - Trenton, New Jersey, USA
Distance from station: ENE 20mi, 32km
Updated: Fri, 31-Oct-2014 7:53pm EDT
Overcast
Overcast
 Wind from N
Wind: N 6 mph , 9 km/h
Temperature: 48°F , 9°C
Wind Chill: 45°F , 7°C
Dew Point: 36°F , 2°C
Humidity: 62%
Barometer: 29.87 inHg , 1011.5 hPa
Clouds: Overcast
Visibility: 10 miles , 16 km
Cloud details: Mostly cloudy 4600 ft
Overcast 7500 ft
2014/10/31 23:53 KTTN 312353Z 35005KT 10SM BKN046 OVC075 09/02 A2987 RMK AO2 SLP111 T00940022 10106 20089 58005
KUKT - Quakertown Arp, Pennsylvania, USA
Distance from station: NNW 20mi, 32km
Updated: Fri, 31-Oct-2014 7:55pm EDT
Overcast
Overcast
 Wind from NNE
Wind: NNE 3 mph , 6 km/h
Temperature: 48°F , 9°C
Dew Point: 36°F , 2°C
Humidity: 62%
Barometer: 29.90 inHg , 1012.5 hPa
Clouds: Overcast
Visibility: 10 miles , 16 km
Cloud details: Mostly cloudy 3400 ft
Mostly cloudy 5000 ft
Overcast 6000 ft
2014/10/31 23:55 KUKT 312355Z AUTO 02003KT 10SM BKN034 BKN050 OVC060 09/02 A2990 RMK AO1
 
KPHL - Philadelphia, Pennsylvania, USA
Distance from station: S 22mi, 36km
Updated: Fri, 31-Oct-2014 7:54pm EDT
Overcast
Overcast
 Wind from NNE
Wind: NNE 13 mph , 20 km/h
Temperature: 52°F , 11°C
Dew Point: 36°F , 2°C
Humidity: 54%
Barometer: 29.88 inHg , 1011.9 hPa
Clouds: Overcast
Visibility: 10 miles , 16 km
Cloud details: Few Clouds 5000 ft
Partly cloudy 6000 ft
Overcast 7500 ft
2014/10/31 23:54 KPHL 312354Z 03011KT 10SM FEW050 SCT060 OVC075 11/02 A2988 RMK AO2 SLP117 T01060017 10122 20106 58006 $
KVAY - Mount Holly, New Jersey, USA
Distance from station: SE 25mi, 41km
Updated: Fri, 31-Oct-2014 7:54pm EDT
Overcast
Overcast
 Wind from N
Wind: N 5 mph , 7 km/h
Temperature: 48°F , 9°C
Wind Chill: 46°F , 8°C
Dew Point: 37°F , 3°C
Humidity: 66%
Barometer: 29.87 inHg , 1011.5 hPa
Clouds: Overcast
Visibility: 10 miles , 16 km
Cloud details: Overcast 7500 ft
2014/10/31 23:54 KVAY 312354Z AUTO 35004KT 10SM OVC075 09/03 A2987 RMK AO2 SLP114 T00890028 10111 20089 58006
KXLL - Allentown Queen, Pennsylvania, USA
Distance from station: NNW 31mi, 49km
Updated: Fri, 31-Oct-2014 7:55pm EDT
Overcast
Overcast
 Wind from NNE
Wind: NNE 5 mph , 7 km/h
Temperature: 50°F , 10°C
Wind Chill: 48°F , 9°C
Dew Point: 36°F , 2°C
Humidity: 58%
Barometer: 29.91 inHg , 1012.9 hPa
Clouds: Overcast
Visibility: 10 miles , 16 km
Cloud details: Mostly cloudy 4400 ft
Overcast 6500 ft
2014/10/31 23:55 KXLL 312355Z AUTO 03004KT 10SM BKN044 OVC065 10/02 A2991 RMK AO2
 
KWRI - Wrightst/Mcguire, New Jersey, USA
Distance from station: ESE 34mi, 54km
Updated: Fri, 31-Oct-2014 7:58pm EDT
Overcast
Overcast
 Wind from NNW
Wind: NNW 6 mph , 9 km/h
Temperature: 48°F , 9°C
Wind Chill: 45°F , 7°C
Dew Point: 39°F , 4°C
Humidity: 71%
Barometer: 29.85 inHg , 1010.8 hPa
Clouds: Overcast
Visibility: 10 miles , 16 km
Cloud details: Overcast 8000 ft
2014/10/31 23:58 KWRI 312358Z AUTO 34005KT 10SM OVC080 09/04 A2985 RMK AO2 SLP112 60000 T00870040 10110 20086 58005
KABE - Allentown, Pennsylvania, USA
Distance from station: NNW 35mi, 56km
Updated: Fri, 31-Oct-2014 7:51pm EDT
Overcast
Overcast
 Wind from NNE
Wind: NNE 5 mph , 7 km/h
Temperature: 48°F , 9°C
Wind Chill: 46°F , 8°C
Dew Point: 36°F , 2°C
Humidity: 62%
Barometer: 29.90 inHg , 1012.5 hPa
Clouds: Overcast
Visibility: 10 miles , 16 km
Cloud details: Overcast 4500 ft
2014/10/31 23:51 KABE 312351Z 03004KT 10SM OVC045 09/02 A2990 RMK AO2 SLP128 T00890022 10122 20089 50004
KMQS - Coatesville, Pennsylvania, USA
Distance from station: WSW 39mi, 63km
Updated: Fri, 31-Oct-2014 7:55pm EDT
Mostly cloudy
Mostly cloudy
 Wind from NNE
Wind: NNE 3 mph , 6 km/h
Temperature: 46°F , 8°C
Dew Point: 37°F , 3°C
Humidity: 71%
Barometer: 29.88 inHg , 1011.9 hPa
Clouds: Mostly cloudy
Visibility: 10 miles , 16 km
Cloud details: Few Clouds 3000 ft
Partly cloudy 4800 ft
Mostly cloudy 5000 ft
2014/10/31 23:55 KMQS 312355Z AUTO 03003KT 10SM FEW030 SCT048 BKN050 08/03 A2988 RMK AO2
 
KSMQ - Somerville, New Jersey, USA
Distance from station: NE 40mi, 64km
Updated: Fri, 31-Oct-2014 7:53pm EDT
Overcast
Overcast
 Wind from NNW
Wind: NNW 3 mph , 6 km/h
Temperature: 50°F , 10°C
Dew Point: 37°F , 3°C
Humidity: 62%
Barometer: 29.88 inHg , 1011.9 hPa
Clouds: Overcast
Visibility: 10 miles , 16 km
Cloud details: Partly cloudy 5500 ft
Overcast 8000 ft
2014/10/31 23:53 KSMQ 312353Z AUTO 33003KT 10SM SCT055 OVC080 10/03 A2988 RMK AO2 SLP119 T01000028 10111 20100 58003
KILG - Wilmington, Delaware, USA
Distance from station: SSW 42mi, 68km
Updated: Fri, 31-Oct-2014 7:51pm EDT
Mostly cloudy
Mostly cloudy
 Wind from N
Wind: N 8 mph , 13 km/h
Temperature: 48°F , 9°C
Wind Chill: 44°F , 7°C
Dew Point: 37°F , 3°C
Humidity: 66%
Barometer: 29.88 inHg , 1011.9 hPa
Clouds: Mostly cloudy
Visibility: 10 miles , 16 km
Cloud details: Few Clouds 4500 ft
Partly cloudy 5500 ft
Mostly cloudy 7000 ft
2014/10/31 23:51 KILG 312351Z 36007KT 10SM FEW045 SCT055 BKN070 09/03 A2988 RMK AO2 SLP118 T00940028 10128 20094 58003
KRDG - Reading, Pennsylvania, USA
Distance from station: WNW 43mi, 70km
Updated: Fri, 31-Oct-2014 7:54pm EDT
Overcast
Overcast
 Wind from E
Wind: E 6 mph , 9 km/h
Temperature: 50°F , 10°C
Wind Chill: 48°F , 9°C
Dew Point: 36°F , 2°C
Humidity: 58%
Barometer: 29.89 inHg , 1012.2 hPa
Clouds: Overcast
Visibility: 10 miles , 16 km
Cloud details: Few Clouds 4800 ft
Overcast 6000 ft
2014/10/31 23:54 KRDG 312354Z 09005KT 10SM FEW048 OVC060 10/02 A2989 RMK AO2 SLP127 T01000017 10128 20100 50008
 
KNEL - Lakehurst Nas, New Jersey, USA
Distance from station: ESE 46mi, 74km
Updated: Mon, 06-Oct-2014 4:00pm EDT
NOT Current
Clear
Clear
 Wind from S
Wind: S 15 mph , 24 km/h, Gust: 23 mph , 37 km/h
Temperature: 70°F , 21°C
Dew Point: 46°F , 8°C
Humidity: 43%
Barometer: 30.01 inHg , 1016.3 hPa
Clouds: Clear
Visibility: 10 miles , 16 km
2014/10/06 20:00 KNEL 062000Z AUTO 17013G20KT 10SM CLR 21/08 A3001 RMK AO2 SLP163 T02110083 $
KMJX - Toms River, New Jersey, USA
Distance from station: ESE 50mi, 80km
Updated: Fri, 31-Oct-2014 7:55pm EDT
Overcast
Overcast
 Wind from calm
Wind: Calm
Temperature: 48°F , 9°C
Dew Point: 43°F , 6°C
Humidity: 82%
Barometer: 29.86 inHg , 1011.2 hPa
Clouds: Overcast
Visibility: 10 miles , 16 km
Cloud details: Overcast 7000 ft
2014/10/31 23:55 KMJX 312355Z AUTO 00000KT 10SM OVC070 09/06 A2986 RMK AO1 10120 20090 401201020 57007